Time;durP1;ratioP1;P1;durP2;ratioP2;P2;SDS_P1;SDS_P2;PMS_P1;PMS_P2;Temp;Humidity;BMP_temperature;BMP_pressure;BME280_temperature;BME280_humidity;BME280_pressure;Samples;Min_cycle;Max_cycle;Signal;HPM_P1;HPM_P2
2023/10/04 05:13:20;;;;;;;;;;;;;;;5.62;100.00;100849.00;5834822;22;19933;-83
2023/10/04 05:15:45;;;;;;;;;;;;;;;5.62;100.00;100849.00;5014872;28;19921;-83
2023/10/04 05:18:17;;;;;;;;;;;;;;;5.64;100.00;100857.75;5025081;28;19928;-84
2023/10/04 05:20:50;;;;;;;;;;;;;;;5.68;100.00;100860.38;5023555;28;19921;-84
2023/10/04 05:23:17;;;;;;;;;;;;;;;5.66;100.00;100864.78;5006857;28;20418;-84
2023/10/04 05:25:42;;;;;;;;;;;;;;;5.68;100.00;100863.91;5006237;28;20004;-85
2023/10/04 05:28:11;;;;;;;;;;;;;;;5.75;100.00;100856.84;5023251;28;20441;-84
2023/10/04 05:30:38;;;;;;;;;;;;;;;5.72;100.00;100859.50;5024138;28;20318;-84
2023/10/04 05:33:03;;;;;;;;;;;;;;;5.66;100.00;100849.00;5024337;28;20252;-84
2023/10/04 05:35:28;;;;;;;;;;;;;;;5.59;100.00;100843.78;5006524;28;19932;-84
2023/10/04 05:38:03;;;;;;;;;;;;;;;5.56;100.00;100849.03;5024210;28;20048;-91
2023/10/04 05:40:34;;;;;;;;;;;;;;;5.61;100.00;100857.78;5024015;28;20290;-84
2023/10/04 05:42:59;;;;;;;;;;;;;;;5.68;100.00;100858.63;5022802;28;19918;-84
2023/10/04 05:45:25;;;;;;;;;;;;;;;5.50;100.00;100859.59;5023869;28;20000;-83
2023/10/04 05:47:51;;;;;;;;;;;;;;;5.38;100.00;100859.66;5023191;28;20323;-84
2023/10/04 05:50:22;;;;;;;;;;;;;;;5.35;100.00;100867.56;5005975;28;19921;-84
2023/10/04 05:52:48;;;;;;;;;;;;;;;5.52;100.00;100881.50;5005681;28;20376;-84
2023/10/04 05:55:14;;;;;;;;;;;;;;;5.60;100.00;100879.72;5014547;28;19924;-84
2023/10/04 05:57:39;;;;;;;;;;;;;;;5.53;100.00;100877.97;5022513;28;19921;-83
2023/10/04 06:03:01;;;;;;;;;;;;;;;5.58;100.00;100891.09;5016287;28;19964;-84
2023/10/04 06:05:31;;;;;;;;;;;;;;;5.56;100.00;100896.38;5024048;28;20379;-83
2023/10/04 06:07:56;;;;;;;;;;;;;;;5.55;100.00;100893.75;5023893;28;19922;-84
2023/10/04 06:10:23;;;;;;;;;;;;;;;5.34;100.00;100892.09;5005959;28;19959;-84
2023/10/04 06:12:51;;;;;;;;;;;;;;;5.45;100.00;100895.53;5004486;28;20375;-84
2023/10/04 06:15:17;;;;;;;;;;;;;;;5.44;100.00;100888.53;5019210;28;19929;-84
2023/10/04 06:17:43;;;;;;;;;;;;;;;5.44;100.00;100884.16;5022087;28;19924;-84
2023/10/04 06:20:33;;;;;;;;;;;;;;;5.57;100.00;100887.63;5023519;28;19917;-84
2023/10/04 06:23:00;;;;;;;;;;;;;;;5.41;100.00;100891.19;5022666;28;19917;-84
2023/10/04 06:25:26;;;;;;;;;;;;;;;5.51;100.00;100913.06;5023656;28;19917;-84
2023/10/04 06:27:52;;;;;;;;;;;;;;;5.57;100.00;100913.03;5021944;28;19937;-82
2023/10/04 06:30:22;;;;;;;;;;;;;;;5.33;100.00;100925.38;5022825;28;19921;-84
2023/10/04 06:32:48;;;;;;;;;;;;;;;5.37;100.00;100921.84;5022122;28;19928;-84
2023/10/04 06:35:14;;;;;;;;;;;;;;;5.34;100.00;100928.88;5023305;28;19917;-84
2023/10/04 06:37:39;;;;;;;;;;;;;;;5.32;100.00;100928.03;5022810;28;20052;-84
2023/10/04 06:40:14;;;;;;;;;;;;;;;5.45;100.00;100934.97;5021936;28;19917;-83
2023/10/04 06:42:39;;;;;;;;;;;;;;;5.53;100.00;100938.44;5020799;28;20394;-84
2023/10/04 06:45:06;;;;;;;;;;;;;;;5.52;100.00;100939.34;5022919;28;19913;-83
2023/10/04 06:47:34;;;;;;;;;;;;;;;5.33;100.00;100935.00;5022906;28;19925;-83
2023/10/04 06:50:00;;;;;;;;;;;;;;;5.40;100.00;100936.75;5022775;28;19924;-83
2023/10/04 06:52:26;;;;;;;;;;;;;;;5.38;100.00;100954.28;5021771;28;19957;-83
2023/10/04 06:54:51;;;;;;;;;;;;;;;5.40;100.00;100949.91;5022867;28;19971;-83
2023/10/04 06:57:18;;;;;;;;;;;;;;;5.46;100.00;100952.50;5021241;28;19918;-84
2023/10/04 06:59:44;;;;;;;;;;;;;;;5.39;100.00;100942.88;5021934;28;19921;-84
2023/10/04 07:02:09;;;;;;;;;;;;;;;5.33;100.00;100945.53;5022833;28;19921;-84
2023/10/04 07:04:35;;;;;;;;;;;;;;;5.44;100.00;100947.25;5022613;28;20028;-89
2023/10/04 07:07:00;;;;;;;;;;;;;;;5.36;100.00;100948.16;5020980;28;19964;-84
2023/10/04 07:09:27;;;;;;;;;;;;;;;5.31;100.00;100947.28;5022567;28;19921;-87
2023/10/04 07:11:53;;;;;;;;;;;;;;;5.51;100.00;100956.00;5022611;28;20319;-82
2023/10/04 07:14:18;;;;;;;;;;;;;;;5.58;100.00;100949.81;5021007;28;19921;-82
2023/10/04 07:16:43;;;;;;;;;;;;;;;5.53;100.00;100959.47;5022080;28;20375;-82
2023/10/04 07:19:09;;;;;;;;;;;;;;;5.34;100.00;100949.91;5005235;28;19996;-82
2023/10/04 07:21:34;;;;;;;;;;;;;;;5.42;100.00;100950.75;5022330;28;20020;-82
2023/10/04 08:08:26;;;;;;;;;;;;;;;5.50;100.00;100975.25;5045933;28;20397;-83
2023/10/04 08:10:55;;;;;;;;;;;;;;;5.46;100.00;100969.16;5030814;28;19921;-82
2023/10/04 08:13:20;;;;;;;;;;;;;;;5.54;100.00;100970.91;5053240;28;19967;-82
2023/10/04 08:15:48;;;;;;;;;;;;;;;5.69;100.00;100972.59;5052680;28;19925;-90
2023/10/04 08:18:16;;;;;;;;;;;;;;;14.27;100.00;100942.69;5036883;28;20003;-83
2023/10/04 08:20:42;;;;;;;;;;;;;;;7.21;100.00;100960.13;5053907;28;19923;-82
2023/10/04 08:23:08;;;;;;;;;;;;;;;6.21;100.00;100972.38;5055468;28;20314;-82
2023/10/04 08:25:35;;;;;;;;;;;;;;;6.05;100.00;100970.69;5053726;28;20282;-82
2023/10/04 08:28:01;;;;;;;;;;;;;;;6.03;100.00;100964.56;5054407;28;20344;-83
2023/10/04 08:30:27;;;;;;;;;;;;;;;6.18;100.00;100959.22;5055369;28;19958;-84
2023/10/04 08:32:53;;;;;;;;;;;;;;;13.65;100.00;100962.84;5054507;28;19921;-88
2023/10/04 08:35:23;;;;;;;;;;;;;;;14.46;100.00;100944.63;5034294;28;20398;-82
2023/10/04 08:37:49;;;;;;;;;;;;;;;8.52;100.00;100955.81;5054974;28;19912;-84
2023/10/04 08:40:18;;;;;;;;;;;;;;;7.11;100.00;100979.56;5053050;28;19923;-87
2023/10/04 08:42:44;;;;;;;;;;;;;;;6.64;100.00;100977.34;5035669;28;19925;-83
2023/10/04 08:45:09;;;;;;;;;;;;;;;6.40;100.00;100977.50;5053916;28;19924;-84
2023/10/04 08:47:35;;;;;;;;;;;;;;;6.23;100.00;100981.13;5053444;28;20035;-83
2023/10/04 08:50:06;;;;;;;;;;;;;;;6.14;100.00;100970.63;5051956;28;19933;-83
2023/10/04 08:52:35;;;;;;;;;;;;;;;6.09;100.00;100975.06;5054748;28;20004;-84
2023/10/04 08:55:07;;;;;;;;;;;;;;;6.06;100.00;100975.94;5052551;28;19927;-84
2023/10/04 08:57:39;;;;;;;;;;;;;;;6.03;100.00;100975.09;5053357;28;19921;-87
2023/10/04 09:00:13;;;;;;;;;;;;;;;6.15;100.00;100975.03;5054720;28;19916;-84
2023/10/04 09:02:47;;;;;;;;;;;;;;;5.96;100.00;100974.22;5052728;28;19921;-84
2023/10/04 09:05:14;;;;;;;;;;;;;;;5.78;100.00;100973.41;5035399;28;19912;-84
2023/10/04 09:07:40;;;;;;;;;;;;;;;5.85;100.00;100965.50;5051833;28;19970;-83
2023/10/04 09:10:06;;;;;;;;;;;;;;;5.93;100.00;100969.84;5053126;28;20469;-83
2023/10/04 09:12:31;;;;;;;;;;;;;;;5.82;100.00;100967.28;5036351;28;19920;-84
2023/10/04 09:14:57;;;;;;;;;;;;;;;5.87;100.00;100962.00;5054889;28;19982;-84
2023/10/04 09:17:24;;;;;;;;;;;;;;;5.80;100.00;100957.63;5052485;28;19925;-84
2023/10/04 09:19:49;;;;;;;;;;;;;;;5.78;100.00;100965.53;5052309;28;19917;-84
2023/10/04 09:22:23;;;;;;;;;;;;;;;5.72;100.00;100969.94;5050715;28;19921;-83
2023/10/04 09:24:54;;;;;;;;;;;;;;;5.75;100.00;100962.03;5051947;28;20351;-84
2023/10/04 09:27:21;;;;;;;;;;;;;;;5.69;100.00;100964.69;5054226;28;20757;-84
2023/10/04 09:29:47;;;;;;;;;;;;;;;5.64;100.00;100960.31;5053637;28;19943;-84
2023/10/04 09:32:12;;;;;;;;;;;;;;;5.67;100.00;100967.31;5054112;28;20391;-83
2023/10/04 09:34:38;;;;;;;;;;;;;;;5.77;100.00;100968.16;5052532;28;20016;-84
2023/10/04 09:37:17;;;;;;;;;;;;;;;5.71;100.00;100961.19;5053882;28;19924;-84
2023/10/04 09:39:42;;;;;;;;;;;;;;;5.66;100.00;100964.69;5052848;28;20008;-83
2023/10/04 09:42:13;;;;;;;;;;;;;;;5.73;100.00;100962.06;5050687;28;20048;-84
2023/10/04 09:44:39;;;;;;;;;;;;;;;5.79;100.00;100963.75;5033954;28;19927;-84
2023/10/04 09:47:05;;;;;;;;;;;;;;;5.87;100.00;100959.38;5052346;28;19925;-84
2023/10/04 09:49:35;;;;;;;;;;;;;;;5.65;100.00;100958.59;5051803;28;19917;-83
2023/10/04 09:52:05;;;;;;;;;;;;;;;5.59;100.00;100963.84;5051846;28;19956;-84
2023/10/04 09:54:31;;;;;;;;;;;;;;;5.60;100.00;100957.69;5032852;28;20290;-83
2023/10/04 09:56:56;;;;;;;;;;;;;;;5.62;100.00;100961.22;5053561;28;20015;-84
2023/10/04 09:59:23;;;;;;;;;;;;;;;5.58;100.00;100956.84;5052455;28;19921;-83
2023/10/04 10:01:55;;;;;;;;;;;;;;;5.60;100.00;100955.97;5053450;28;20291;-83
2023/10/04 10:04:31;;;;;;;;;;;;;;;5.67;100.00;100964.69;5032853;28;20275;-84
2023/10/04 10:06:56;;;;;;;;;;;;;;;6.07;100.00;100971.56;5034792;28;20024;-84
2023/10/04 10:09:24;;;;;;;;;;;;;;;6.14;100.00;100974.16;5052510;28;20003;-84
2023/10/04 10:11:52;;;;;;;;;;;;;;;5.97;100.00;100965.47;5033386;28;19921;-83
2023/10/04 10:14:19;;;;;;;;;;;;;;;5.79;100.00;100967.28;5050729;28;19916;-84
2023/10/04 10:16:45;;;;;;;;;;;;;;;5.91;100.00;100968.97;5032854;28;20051;-86
2023/10/04 10:19:12;;;;;;;;;;;;;;;6.00;100.00;100974.22;5048854;28;20342;-83
2023/10/04 10:21:56;;;;;;;;;;;;;;;5.82;100.00;100972.53;5050114;28;20578;-84
2023/10/04 10:24:21;;;;;;;;;;;;;;;5.87;100.00;100966.34;5050105;28;19943;-85
2023/10/04 10:26:47;;;;;;;;;;;;;;;5.74;100.00;100968.16;5051257;28;20296;-84
2023/10/04 10:29:20;;;;;;;;;;;;;;;5.64;100.00;100955.06;5050579;28;19921;-82
2023/10/04 10:31:52;;;;;;;;;;;;;;;5.63;100.00;100955.97;5052046;28;20342;-84
2023/10/04 10:34:17;;;;;;;;;;;;;;;5.97;100.00;100955.81;5050826;28;19931;-84
2023/10/04 10:36:42;;;;;;;;;;;;;;;5.73;100.00;100953.28;5052711;28;20270;-84
2023/10/04 10:39:20;;;;;;;;;;;;;;;6.05;100.00;100958.41;5049340;28;19925;-84
2023/10/04 10:41:49;;;;;;;;;;;;;;;5.94;100.00;100950.53;5052216;28;19978;-83
2023/10/04 10:44:14;;;;;;;;;;;;;;;5.93;100.00;100951.41;5051782;28;19920;-83
2023/10/04 10:46:58;;;;;;;;;;;;;;;6.14;100.00;100953.09;5032830;28;20074;-83
2023/10/04 10:49:39;;;;;;;;;;;;;;;6.15;100.00;100943.44;5032082;28;19920;-83
2023/10/04 10:52:06;;;;;;;;;;;;;;;5.79;100.00;100935.72;5050033;28;20402;-83
2023/10/04 10:54:31;;;;;;;;;;;;;;;5.69;100.00;100933.13;5033978;28;20015;-84
2023/10/04 10:56:57;;;;;;;;;;;;;;;5.78;100.00;100933.09;5044055;28;20015;-84
2023/10/04 10:59:25;;;;;;;;;;;;;;;5.91;100.00;100928.66;5032270;28;19928;-91
2023/10/04 11:01:50;;;;;;;;;;;;;;;5.57;100.00;100921.78;5031822;28;20394;-85
2023/10/04 11:04:16;;;;;;;;;;;;;;;5.83;100.00;100920.78;5050055;28;20011;-85
2023/10/04 11:06:43;;;;;;;;;;;;;;;5.71;100.00;100919.13;5051983;28;19924;-85
2023/10/04 11:09:09;;;;;;;;;;;;;;;5.63;100.00;100913.88;5050769;28;19932;-85
2023/10/04 11:11:34;;;;;;;;;;;;;;;5.68;100.00;100915.59;5048530;28;19921;-84
2023/10/04 11:14:05;;;;;;;;;;;;;;;5.72;100.00;100917.34;5049898;28;19921;-85
2023/10/04 11:16:32;;;;;;;;;;;;;;;5.87;100.00;100917.28;5048423;28;20015;-86
2023/10/04 11:18:59;;;;;;;;;;;;;;;5.67;100.00;100914.72;5050183;28;19924;-84
2023/10/04 11:21:25;;;;;;;;;;;;;;;5.60;100.00;100913.00;5032443;28;19924;-84
2023/10/04 11:23:51;;;;;;;;;;;;;;;5.81;100.00;100912.03;5050756;28;20379;-84
2023/10/04 11:26:16;;;;;;;;;;;;;;;5.81;100.00;100905.00;5050789;28;20287;-85
2023/10/04 11:28:43;;;;;;;;;;;;;;;6.06;100.00;100906.66;5049525;28;19921;-85
2023/10/04 11:31:08;;;;;;;;;;;;;;;6.12;100.00;100909.25;5051308;28;19924;-85
2023/10/04 11:33:55;;;;;;;;;;;;;;;5.71;100.00;100902.44;5049903;28;19920;-84
2023/10/04 11:36:21;;;;;;;;;;;;;;;5.78;100.00;100896.28;5049605;28;19928;-83
2023/10/04 11:38:50;;;;;;;;;;;;;;;5.64;100.00;100899.84;5032011;28;19920;-85
2023/10/04 11:41:15;;;;;;;;;;;;;;;5.70;100.00;100896.31;5033166;28;19921;-84
2023/10/04 11:43:41;;;;;;;;;;;;;;;5.67;100.00;100898.97;5051961;28;19928;-85
2023/10/04 11:46:08;;;;;;;;;;;;;;;5.76;100.00;100898.91;5051940;28;19916;-84
2023/10/04 11:48:33;;;;;;;;;;;;;;;5.70;100.00;100895.44;5055261;28;19955;-85
2023/10/04 11:50:59;;;;;;;;;;;;;;;5.65;100.00;100892.84;5051843;28;20389;-86
2023/10/04 11:53:31;;;;;;;;;;;;;;;5.68;100.00;100890.19;5036780;28;19924;-86
2023/10/04 11:56:00;;;;;;;;;;;;;;;5.67;100.00;100887.56;5054977;28;20010;-93
2023/10/04 11:58:27;;;;;;;;;;;;;;;5.72;100.00;100888.41;5053117;28;20027;-87
2023/10/04 12:01:06;;;;;;;;;;;;;;;6.01;100.00;100883.00;5054663;28;19931;-89
2023/10/04 12:03:34;;;;;;;;;;;;;;;5.71;100.00;100878.75;5055888;28;20295;-86
2023/10/04 12:06:00;;;;;;;;;;;;;;;6.03;100.00;100873.38;5054485;28;19925;-85
2023/10/04 12:08:26;;;;;;;;;;;;;;;6.17;100.00;100874.13;5035279;28;19924;-88
2023/10/04 12:10:51;;;;;;;;;;;;;;;6.14;100.00;100868.00;5054886;28;19925;-86
2023/10/04 12:13:16;;;;;;;;;;;;;;;5.78;100.00;100862.09;5055322;28;19917;-83
2023/10/04 12:15:42;;;;;;;;;;;;;;;5.81;100.00;100862.06;5055575;28;20474;-83
2023/10/04 12:18:08;;;;;;;;;;;;;;;5.71;100.00;100868.25;5053419;28;19921;-92
2023/10/04 12:20:36;;;;;;;;;;;;;;;5.75;100.00;100867.34;5052856;28;19928;-84
2023/10/04 12:23:01;;;;;;;;;;;;;;;6.17;100.00;100860.97;5055475;28;20003;-84
2023/10/04 12:25:28;;;;;;;;;;;;;;;6.05;100.00;100861.06;5055484;28;20434;-82
2023/10/04 12:27:53;;;;;;;;;;;;;;;5.62;100.00;100859.53;5052984;28;19917;-86
2023/10/04 12:30:20;;;;;;;;;;;;;;;5.66;100.00;100856.88;5028435;28;19921;-88
2023/10/04 12:32:49;;;;;;;;;;;;;;;5.90;100.00;100864.63;5036359;28;19921;-84
2023/10/04 12:35:15;;;;;;;;;;;;;;;5.94;100.00;100861.09;5053519;28;19931;-84
2023/10/04 12:37:40;;;;;;;;;;;;;;;6.00;100.00;100855.81;5053419;28;20011;-88
2023/10/04 12:40:24;;;;;;;;;;;;;;;5.77;100.00;100853.31;5052945;28;19928;-84
2023/10/04 12:42:51;;;;;;;;;;;;;;;5.67;100.00;100850.75;5053704;28;20406;-83
2023/10/04 12:45:17;;;;;;;;;;;;;;;5.64;100.00;100841.97;5054978;28;19932;-83
2023/10/04 12:47:42;;;;;;;;;;;;;;;5.72;100.00;100848.97;5053008;28;19920;-84
2023/10/04 12:50:09;;;;;;;;;;;;;;;5.70;100.00;100840.22;5033527;28;19971;-83
2023/10/04 12:52:35;;;;;;;;;;;;;;;5.69;100.00;100847.22;5049902;28;19921;-85
2023/10/04 12:55:01;;;;;;;;;;;;;;;5.74;100.00;100836.66;5053155;28;19974;-87
2023/10/04 12:57:27;;;;;;;;;;;;;;;5.66;100.00;100838.47;5053218;28;19925;-86
2023/10/04 12:59:53;;;;;;;;;;;;;;;5.66;100.00;100843.75;5035620;28;19989;-85
2023/10/04 13:02:22;;;;;;;;;;;;;;;5.69;100.00;100841.97;5053104;28;19971;-83
2023/10/04 13:04:50;;;;;;;;;;;;;;;5.67;100.00;100835.84;5052791;28;19963;-86
2023/10/04 13:07:15;;;;;;;;;;;;;;;5.67;100.00;100819.19;5053915;28;20019;-87
2023/10/04 13:09:44;;;;;;;;;;;;;;;5.68;100.00;100815.66;5053615;28;20034;-86
2023/10/04 13:12:10;;;;;;;;;;;;;;;5.67;100.00;100809.56;5052606;28;19924;-85
2023/10/04 13:14:35;;;;;;;;;;;;;;;5.64;100.00;100814.81;5033685;28;20004;-88
2023/10/04 13:17:00;;;;;;;;;;;;;;;5.99;100.00;100806.72;5031667;28;19935;-85
2023/10/04 13:19:26;;;;;;;;;;;;;;;5.75;100.00;100799.84;5051882;28;20402;-85
2023/10/04 13:21:51;;;;;;;;;;;;;;;5.76;100.00;100798.06;5052911;28;20021;-86
2023/10/04 13:24:18;;;;;;;;;;;;;;;5.70;100.00;100799.00;5054045;28;19923;-85
2023/10/04 13:26:45;;;;;;;;;;;;;;;5.67;100.00;100803.44;5051773;28;20388;-84
2023/10/04 13:29:14;;;;;;;;;;;;;;;5.67;100.00;100790.28;5051728;28;19927;-85
2023/10/04 13:31:39;;;;;;;;;;;;;;;5.68;100.00;100795.53;5050346;28;19925;-85
2023/10/04 13:34:05;;;;;;;;;;;;;;;5.87;100.00;100795.38;5052150;28;19932;-87
2023/10/04 13:36:31;;;;;;;;;;;;;;;5.78;100.00;100801.59;5053416;28;19928;-89
2023/10/04 13:38:56;;;;;;;;;;;;;;;5.79;100.00;100788.44;5053705;28;19917;-89
2023/10/04 13:41:22;;;;;;;;;;;;;;;6.02;100.00;100794.44;5050323;28;19929;-86
2023/10/04 13:43:49;;;;;;;;;;;;;;;5.83;100.00;100784.00;5034757;28;19920;-83
2023/10/04 13:46:14;;;;;;;;;;;;;;;5.94;100.00;100787.44;5049653;28;19932;-87
2023/10/04 13:48:41;;;;;;;;;;;;;;;5.77;100.00;100786.69;5053197;28;20330;-90
2023/10/04 13:51:07;;;;;;;;;;;;;;;5.79;100.00;100791.06;5034235;28;20383;-91
2023/10/04 13:53:34;;;;;;;;;;;;;;;5.92;100.00;100802.38;5034841;28;19920;-87
2023/10/04 13:56:01;;;;;;;;;;;;;;;5.66;100.00;100791.16;5051922;28;19928;-88
2023/10/04 13:58:27;;;;;;;;;;;;;;;5.69;100.00;100799.88;5052874;28;19995;-83
2023/10/04 14:00:54;;;;;;;;;;;;;;;6.02;100.00;100790.03;5051079;28;19920;-86
2023/10/04 14:03:19;;;;;;;;;;;;;;;5.86;100.00;100789.25;5050867;28;20426;-86
2023/10/04 14:05:44;;;;;;;;;;;;;;;5.83;100.00;100791.91;5049745;28;19921;-86
2023/10/04 14:08:11;;;;;;;;;;;;;;;5.71;100.00;100791.97;5050863;28;20427;-88
2023/10/04 14:10:36;;;;;;;;;;;;;;;5.79;100.00;100790.16;5032670;28;19920;-84
2023/10/04 14:13:02;;;;;;;;;;;;;;;5.82;100.00;100785.78;5050825;28;20418;-84
2023/10/04 14:15:28;;;;;;;;;;;;;;;5.82;100.00;100790.16;5032429;28;19925;-84
2023/10/04 14:17:54;;;;;;;;;;;;;;;5.71;100.00;100794.63;5053267;28;19924;-84
2023/10/04 14:20:20;;;;;;;;;;;;;;;5.88;100.00;100792.75;5046758;28;19921;-83
2023/10/04 14:22:46;;;;;;;;;;;;;;;5.76;100.00;100787.56;5051963;28;19974;-84
2023/10/04 14:25:12;;;;;;;;;;;;;;;5.79;100.00;100783.19;5051794;28;20434;-84
2023/10/04 14:27:38;;;;;;;;;;;;;;;5.92;100.00;100781.31;5053059;28;19924;-83
2023/10/04 14:30:04;;;;;;;;;;;;;;;5.69;100.00;100777.97;5050903;28;20280;-83
2023/10/04 14:32:30;;;;;;;;;;;;;;;5.86;100.00;100780.50;5033810;28;19921;-83
2023/10/04 14:34:55;;;;;;;;;;;;;;;5.68;100.00;100774.50;5049458;28;20280;-84
2023/10/04 14:37:20;;;;;;;;;;;;;;;5.74;100.00;100784.06;5048483;28;19928;-83
2023/10/04 14:39:45;;;;;;;;;;;;;;;5.71;100.00;100778.84;5052696;28;19921;-83
2023/10/04 14:42:13;;;;;;;;;;;;;;;5.75;100.00;100773.53;5050502;28;19925;-83
2023/10/04 14:44:38;;;;;;;;;;;;;;;5.72;100.00;100785.84;5032443;28;20675;-84
2023/10/04 14:47:03;;;;;;;;;;;;;;;5.70;100.00;100787.63;5050607;28;19928;-83
2023/10/04 14:49:29;;;;;;;;;;;;;;;5.60;100.00;100785.06;5031776;28;19917;-84
2023/10/04 14:51:54;;;;;;;;;;;;;;;5.77;100.00;100773.53;5051551;28;19924;-83
2023/10/04 14:54:19;;;;;;;;;;;;;;;5.70;100.00;100772.72;5048502;28;19935;-84
2023/10/04 14:56:46;;;;;;;;;;;;;;;5.78;100.00;100764.78;5052560;28;19921;-83
2023/10/04 14:59:11;;;;;;;;;;;;;;;5.68;100.00;100765.72;5032982;28;20364;-84
2023/10/04 15:01:38;;;;;;;;;;;;;;;5.69;100.00;100764.84;5050098;28;19920;-83
2023/10/04 15:04:03;;;;;;;;;;;;;;;5.69;100.00;100762.19;5047653;28;19921;-83
2023/10/04 15:06:29;;;;;;;;;;;;;;;5.69;100.00;100764.84;5050370;28;19924;-83
2023/10/04 15:08:55;;;;;;;;;;;;;;;5.76;100.00;100761.25;5031610;28;19929;-83
2023/10/04 15:11:29;;;;;;;;;;;;;;;5.69;100.00;100762.19;5049921;28;20035;-83
2023/10/04 15:13:55;;;;;;;;;;;;;;;5.74;100.00;100752.50;5051134;28;20008;-84
2023/10/04 15:16:20;;;;;;;;;;;;;;;5.65;100.00;100750.84;5051018;28;20009;-84
2023/10/04 15:18:46;;;;;;;;;;;;;;;5.69;100.00;100749.06;5050792;28;20376;-83
2023/10/04 15:21:11;;;;;;;;;;;;;;;5.70;100.00;100746.41;5050461;28;20387;-84
2023/10/04 15:23:39;;;;;;;;;;;;;;;12.75;100.00;100733.69;5033429;28;19970;-85
2023/10/04 15:26:06;;;;;;;;;;;;;;;7.39;100.00;100742.84;5047552;28;19925;-81
2023/10/04 15:28:41;;;;;;;;;;;;;;;6.26;100.00;100753.88;5031737;28;19967;-91
2023/10/04 15:31:06;;;;;;;;;;;;;;;6.09;100.00;100760.13;5051409;28;20007;-82
2023/10/04 15:33:32;;;;;;;;;;;;;;;5.94;100.00;100763.75;5031888;28;20020;-81
2023/10/04 15:35:58;;;;;;;;;;;;;;;5.87;100.00;100754.19;5050746;28;19964;-81
2023/10/04 15:38:26;;;;;;;;;;;;;;;5.84;100.00;100754.22;5049951;28;19967;-81
2023/10/04 15:40:51;;;;;;;;;;;;;;;5.98;100.00;100747.09;5051826;28;19921;-82
2023/10/04 15:43:18;;;;;;;;;;;;;;;5.87;100.00;100748.94;5052017;28;19921;-82
2023/10/04 15:45:43;;;;;;;;;;;;;;;5.88;100.00;100750.66;5051762;28;19952;-81
2023/10/04 15:48:09;;;;;;;;;;;;;;;5.90;100.00;100742.75;5051726;28;19959;-82
2023/10/04 15:50:37;;;;;;;;;;;;;;;5.82;100.00;100730.53;5049219;28;20398;-81
2023/10/04 15:53:06;;;;;;;;;;;;;;;5.81;100.00;100727.94;5051870;28;19966;-82
2023/10/04 15:55:31;;;;;;;;;;;;;;;5.76;100.00;100727.06;5051706;28;19924;-82
2023/10/04 15:57:56;;;;;;;;;;;;;;;5.78;100.00;100735.84;5033826;28;19925;-82
2023/10/04 16:00:30;;;;;;;;;;;;;;;5.81;100.00;100738.44;5051657;28;19920;-81
2023/10/04 16:02:55;;;;;;;;;;;;;;;5.73;100.00;100735.88;5051721;28;20277;-81
2023/10/04 16:05:20;;;;;;;;;;;;;;;5.73;100.00;100733.25;5032621;28;19921;-81
2023/10/04 16:07:50;;;;;;;;;;;;;;;5.74;100.00;100731.47;5051316;28;20383;-89
2023/10/04 16:10:19;;;;;;;;;;;;;;;5.63;100.00;100727.19;5051752;28;19917;-85
2023/10/04 16:12:48;;;;;;;;;;;;;;;5.70;100.00;100721.88;5033388;28;20383;-81
2023/10/04 16:15:15;;;;;;;;;;;;;;;5.63;100.00;100724.56;5050105;28;19927;-81
2023/10/04 16:17:40;;;;;;;;;;;;;;;5.69;100.00;100717.50;5051615;28;20319;-81
2023/10/04 16:20:07;;;;;;;;;;;;;;;5.64;100.00;100712.28;5050213;28;19916;-82
2023/10/04 16:22:38;;;;;;;;;;;;;;;5.73;100.00;100713.97;5051508;28;19978;-81
2023/10/04 16:25:04;;;;;;;;;;;;;;;5.68;100.00;100721.00;5050048;28;20395;-82
2023/10/04 16:27:29;;;;;;;;;;;;;;;5.66;100.00;100714.91;5045311;28;20360;-81
2023/10/04 16:29:55;;;;;;;;;;;;;;;5.83;100.00;100713.00;5051377;28;20279;-81
2023/10/04 16:32:23;;;;;;;;;;;;;;;5.63;100.00;100724.56;5051615;28;19939;-81
2023/10/04 16:34:48;;;;;;;;;;;;;;;5.66;100.00;100728.03;5052884;28;20011;-81
2023/10/04 16:37:13;;;;;;;;;;;;;;;5.79;100.00;100724.41;5036636;28;20005;-83
2023/10/04 16:39:38;;;;;;;;;;;;;;;5.70;100.00;100716.63;5053933;28;19924;-81
2023/10/04 16:42:06;;;;;;;;;;;;;;;5.68;100.00;100718.38;5036638;28;19924;-90
2023/10/04 16:44:32;;;;;;;;;;;;;;;5.66;100.00;100721.00;5054883;28;19966;-91
2023/10/04 16:46:58;;;;;;;;;;;;;;;5.80;100.00;100726.16;5049093;28;20281;-82
2023/10/04 16:49:23;;;;;;;;;;;;;;;5.78;100.00;100723.56;5053205;28;19960;-88
2023/10/04 16:51:50;;;;;;;;;;;;;;;5.77;100.00;100715.69;5036487;28;19921;-83
2023/10/04 16:54:15;;;;;;;;;;;;;;;5.72;100.00;100723.59;5055162;28;19924;-82
2023/10/04 16:56:41;;;;;;;;;;;;;;;5.61;100.00;100710.53;5054062;28;19917;-84
2023/10/04 16:59:07;;;;;;;;;;;;;;;5.61;100.00;100714.94;5053481;28;19920;-84
2023/10/04 17:01:33;;;;;;;;;;;;;;;5.69;100.00;100722.75;5054605;28;19916;-82
2023/10/04 17:03:59;;;;;;;;;;;;;;;5.66;100.00;100722.78;5054634;28;19940;-82
2023/10/04 17:06:24;;;;;;;;;;;;;;;5.68;100.00;100726.25;5053401;28;19931;-85
2023/10/04 17:08:49;;;;;;;;;;;;;;;5.66;100.00;100722.78;5052922;28;20019;-80
2023/10/04 17:11:15;;;;;;;;;;;;;;;5.60;100.00;100729.84;5054551;28;20039;-82
2023/10/04 17:13:40;;;;;;;;;;;;;;;5.61;100.00;100721.03;5054135;28;19913;-83
2023/10/04 17:16:05;;;;;;;;;;;;;;;5.66;100.00;100728.03;5036023;28;20004;-82
2023/10/04 17:18:31;;;;;;;;;;;;;;;5.62;100.00;100725.44;5054819;28;19921;-81
2023/10/04 17:20:56;;;;;;;;;;;;;;;5.63;100.00;100729.81;5053180;28;20020;-80
2023/10/04 17:23:21;;;;;;;;;;;;;;;5.68;100.00;100726.25;5054465;28;19968;-82
2023/10/04 17:25:47;;;;;;;;;;;;;;;5.66;100.00;100728.03;5054081;28;19927;-93
2023/10/04 17:28:14;;;;;;;;;;;;;;;5.59;100.00;100732.47;5035605;28;19917;-84
2023/10/04 17:30:40;;;;;;;;;;;;;;;5.63;100.00;100719.31;5035621;28;19923;-82
2023/10/04 17:33:06;;;;;;;;;;;;;;;5.68;100.00;100723.63;5054078;28;19921;-82
2023/10/04 17:35:32;;;;;;;;;;;;;;;5.75;100.00;100733.22;5051720;28;19960;-84
2023/10/04 17:37:57;;;;;;;;;;;;;;;5.78;100.00;100733.22;5054189;28;20011;-82
2023/10/04 17:40:23;;;;;;;;;;;;;;;5.64;100.00;100733.31;5052615;28;19917;-84
2023/10/04 17:42:48;;;;;;;;;;;;;;;5.63;100.00;100731.56;5052553;28;19966;-84
2023/10/04 17:45:13;;;;;;;;;;;;;;;5.60;100.00;100735.09;5035141;28;19963;-86
2023/10/04 17:47:39;;;;;;;;;;;;;;;5.58;100.00;100736.84;5035124;28;19917;-84
2023/10/04 17:50:05;;;;;;;;;;;;;;;5.67;100.00;100741.19;5034717;28;19966;-81
2023/10/04 17:52:30;;;;;;;;;;;;;;;5.61;100.00;100746.47;5052417;28;19923;-83
2023/10/04 17:54:57;;;;;;;;;;;;;;;5.63;100.00;100739.44;5035044;28;20334;-87
2023/10/04 17:57:23;;;;;;;;;;;;;;;5.59;100.00;100735.09;5053457;28;19913;-79
2023/10/04 17:59:48;;;;;;;;;;;;;;;5.70;100.00;100741.16;5053450;28;19975;-84
2023/10/04 18:02:13;;;;;;;;;;;;;;;5.59;100.00;100741.22;5053430;28;20022;-84
2023/10/04 18:04:39;;;;;;;;;;;;;;;5.53;100.00;100745.66;5052270;28;20007;-82
2023/10/04 18:07:05;;;;;;;;;;;;;;;5.54;100.00;100740.41;5053615;28;19917;-82
2023/10/04 18:09:31;;;;;;;;;;;;;;;5.60;100.00;100742.09;5051995;28;20344;-81
2023/10/04 18:11:56;;;;;;;;;;;;;;;5.61;100.00;100747.34;5051534;28;20018;-84
2023/10/04 18:14:21;;;;;;;;;;;;;;;5.67;100.00;100751.69;5051519;28;20391;-81
2023/10/04 18:16:46;;;;;;;;;;;;;;;5.70;100.00;100753.44;5051913;28;20323;-84
2023/10/04 18:19:12;;;;;;;;;;;;;;;5.72;100.00;100743.78;5052036;28;19912;-86
2023/10/04 18:21:38;;;;;;;;;;;;;;;5.82;100.00;100745.44;5051037;28;19967;-87
2023/10/04 18:24:03;;;;;;;;;;;;;;;5.82;100.00;100746.34;5052952;28;19916;-86
2023/10/04 18:26:28;;;;;;;;;;;;;;;5.75;100.00;100743.75;5053105;28;20360;-86
2023/10/04 18:28:55;;;;;;;;;;;;;;;5.63;100.00;100750.84;5052829;28;19924;-82
2023/10/04 18:31:20;;;;;;;;;;;;;;;5.71;100.00;100747.28;5051950;28;19963;-85
2023/10/04 18:33:46;;;;;;;;;;;;;;;5.72;100.00;100751.66;5052955;28;19952;-85